sensor_id;sensor_type;location;lat;lon;timestamp;P1;durP1;ratioP1;P2;durP2;ratioP2
29344;SDS011;16339;48.748;2.222;2023-06-05T00:00:02;8.95;;;2.80;;
29344;SDS011;16339;48.748;2.222;2023-06-05T00:02:32;9.57;;;2.55;;
29344;SDS011;16339;48.748;2.222;2023-06-05T00:05:01;10.65;;;2.95;;
29344;SDS011;16339;48.748;2.222;2023-06-05T00:07:33;7.00;;;2.60;;
29344;SDS011;16339;48.748;2.222;2023-06-05T00:10:05;12.07;;;2.78;;
29344;SDS011;16339;48.748;2.222;2023-06-05T00:12:35;8.48;;;2.75;;
29344;SDS011;16339;48.748;2.222;2023-06-05T00:15:04;14.55;;;2.58;;
29344;SDS011;16339;48.748;2.222;2023-06-05T00:17:34;10.82;;;2.70;;
29344;SDS011;16339;48.748;2.222;2023-06-05T00:20:03;8.85;;;2.60;;
29344;SDS011;16339;48.748;2.222;2023-06-05T00:22:34;5.68;;;2.72;;
29344;SDS011;16339;48.748;2.222;2023-06-05T00:25:07;8.00;;;2.90;;
29344;SDS011;16339;48.748;2.222;2023-06-05T00:27:36;12.85;;;3.08;;
29344;SDS011;16339;48.748;2.222;2023-06-05T00:30:06;5.55;;;2.72;;
29344;SDS011;16339;48.748;2.222;2023-06-05T00:32:36;7.88;;;3.58;;
29344;SDS011;16339;48.748;2.222;2023-06-05T00:35:06;17.25;;;3.63;;
29344;SDS011;16339;48.748;2.222;2023-06-05T00:37:35;8.13;;;3.33;;
29344;SDS011;16339;48.748;2.222;2023-06-05T00:40:07;9.27;;;3.33;;
29344;SDS011;16339;48.748;2.222;2023-06-05T00:42:36;9.43;;;3.53;;
29344;SDS011;16339;48.748;2.222;2023-06-05T00:45:05;10.00;;;3.90;;
29344;SDS011;16339;48.748;2.222;2023-06-05T00:47:35;10.48;;;3.95;;
29344;SDS011;16339;48.748;2.222;2023-06-05T00:50:04;15.68;;;4.30;;
29344;SDS011;16339;48.748;2.222;2023-06-05T00:52:36;8.95;;;3.50;;
29344;SDS011;16339;48.748;2.222;2023-06-05T00:55:09;15.68;;;3.15;;
29344;SDS011;16339;48.748;2.222;2023-06-05T00:57:40;12.75;;;4.28;;
29344;SDS011;16339;48.748;2.222;2023-06-05T01:02:39;14.63;;;4.05;;
29344;SDS011;16339;48.748;2.222;2023-06-05T01:05:09;7.57;;;3.00;;
29344;SDS011;16339;48.748;2.222;2023-06-05T01:07:38;8.60;;;3.28;;
29344;SDS011;16339;48.748;2.222;2023-06-05T01:10:09;7.15;;;3.17;;
29344;SDS011;16339;48.748;2.222;2023-06-05T01:12:40;9.88;;;3.28;;
29344;SDS011;16339;48.748;2.222;2023-06-05T01:15:18;15.93;;;3.80;;
29344;SDS011;16339;48.748;2.222;2023-06-05T01:17:53;8.77;;;2.92;;
29344;SDS011;16339;48.748;2.222;2023-06-05T01:20:25;13.60;;;3.60;;
29344;SDS011;16339;48.748;2.222;2023-06-05T01:23:02;9.45;;;3.17;;
29344;SDS011;16339;48.748;2.222;2023-06-05T01:25:31;10.85;;;3.10;;
29344;SDS011;16339;48.748;2.222;2023-06-05T01:28:04;8.82;;;3.25;;
29344;SDS011;16339;48.748;2.222;2023-06-05T01:30:40;11.13;;;3.20;;
29344;SDS011;16339;48.748;2.222;2023-06-05T01:33:19;6.20;;;2.92;;
29344;SDS011;16339;48.748;2.222;2023-06-05T01:35:53;9.98;;;2.88;;
29344;SDS011;16339;48.748;2.222;2023-06-05T01:38:32;16.75;;;3.10;;
29344;SDS011;16339;48.748;2.222;2023-06-05T01:41:01;13.30;;;3.80;;
29344;SDS011;16339;48.748;2.222;2023-06-05T01:43:31;7.70;;;3.40;;
29344;SDS011;16339;48.748;2.222;2023-06-05T01:46:00;8.80;;;3.40;;
29344;SDS011;16339;48.748;2.222;2023-06-05T01:48:29;10.23;;;3.42;;
29344;SDS011;16339;48.748;2.222;2023-06-05T01:50:59;8.93;;;3.20;;
29344;SDS011;16339;48.748;2.222;2023-06-05T01:53:28;11.70;;;3.42;;
29344;SDS011;16339;48.748;2.222;2023-06-05T01:56:00;15.73;;;3.40;;
29344;SDS011;16339;48.748;2.222;2023-06-05T01:58:29;8.95;;;3.20;;
29344;SDS011;16339;48.748;2.222;2023-06-05T02:00:58;9.43;;;2.78;;
29344;SDS011;16339;48.748;2.222;2023-06-05T02:03:27;10.60;;;3.15;;
29344;SDS011;16339;48.748;2.222;2023-06-05T02:05:56;10.98;;;3.47;;
29344;SDS011;16339;48.748;2.222;2023-06-05T02:08:25;10.25;;;3.17;;
29344;SDS011;16339;48.748;2.222;2023-06-05T02:10:56;10.18;;;3.30;;
29344;SDS011;16339;48.748;2.222;2023-06-05T02:13:27;7.13;;;3.10;;
29344;SDS011;16339;48.748;2.222;2023-06-05T02:15:58;9.75;;;3.45;;
29344;SDS011;16339;48.748;2.222;2023-06-05T02:18:27;8.75;;;3.08;;
29344;SDS011;16339;48.748;2.222;2023-06-05T02:20:57;10.30;;;2.60;;
29344;SDS011;16339;48.748;2.222;2023-06-05T02:23:26;8.23;;;3.53;;
29344;SDS011;16339;48.748;2.222;2023-06-05T02:25:57;10.05;;;3.42;;
29344;SDS011;16339;48.748;2.222;2023-06-05T02:30:54;6.70;;;2.85;;
29344;SDS011;16339;48.748;2.222;2023-06-05T02:33:24;10.40;;;2.88;;
29344;SDS011;16339;48.748;2.222;2023-06-05T02:35:53;10.93;;;3.35;;
29344;SDS011;16339;48.748;2.222;2023-06-05T02:38:21;7.88;;;3.33;;
29344;SDS011;16339;48.748;2.222;2023-06-05T02:40:52;13.52;;;3.38;;
29344;SDS011;16339;48.748;2.222;2023-06-05T02:43:23;6.88;;;3.30;;
29344;SDS011;16339;48.748;2.222;2023-06-05T02:45:52;8.25;;;2.92;;
29344;SDS011;16339;48.748;2.222;2023-06-05T02:48:20;8.63;;;3.17;;
29344;SDS011;16339;48.748;2.222;2023-06-05T02:50:49;8.25;;;3.10;;
29344;SDS011;16339;48.748;2.222;2023-06-05T02:53:18;8.90;;;3.30;;
29344;SDS011;16339;48.748;2.222;2023-06-05T02:55:46;14.73;;;4.32;;
29344;SDS011;16339;48.748;2.222;2023-06-05T02:58:15;16.23;;;3.03;;
29344;SDS011;16339;48.748;2.222;2023-06-05T03:00:47;13.57;;;3.28;;
29344;SDS011;16339;48.748;2.222;2023-06-05T03:03:18;7.03;;;3.30;;
29344;SDS011;16339;48.748;2.222;2023-06-05T03:05:51;11.50;;;3.50;;
29344;SDS011;16339;48.748;2.222;2023-06-05T03:08:19;13.77;;;3.78;;
29344;SDS011;16339;48.748;2.222;2023-06-05T03:10:48;12.85;;;3.97;;
29344;SDS011;16339;48.748;2.222;2023-06-05T03:13:17;14.32;;;3.60;;
29344;SDS011;16339;48.748;2.222;2023-06-05T03:15:48;9.05;;;3.70;;
29344;SDS011;16339;48.748;2.222;2023-06-05T03:18:18;11.45;;;3.83;;
29344;SDS011;16339;48.748;2.222;2023-06-05T03:20:47;14.82;;;4.18;;
29344;SDS011;16339;48.748;2.222;2023-06-05T03:23:19;12.02;;;3.38;;
29344;SDS011;16339;48.748;2.222;2023-06-05T03:25:49;12.65;;;3.90;;
29344;SDS011;16339;48.748;2.222;2023-06-05T03:28:18;9.73;;;3.60;;
29344;SDS011;16339;48.748;2.222;2023-06-05T03:30:50;13.60;;;3.72;;
29344;SDS011;16339;48.748;2.222;2023-06-05T03:33:19;9.18;;;3.47;;
29344;SDS011;16339;48.748;2.222;2023-06-05T03:35:49;16.75;;;3.67;;
29344;SDS011;16339;48.748;2.222;2023-06-05T03:38:18;8.43;;;3.80;;
29344;SDS011;16339;48.748;2.222;2023-06-05T03:40:47;9.68;;;3.90;;
29344;SDS011;16339;48.748;2.222;2023-06-05T03:43:15;12.20;;;3.80;;
29344;SDS011;16339;48.748;2.222;2023-06-05T03:45:44;15.85;;;4.03;;
29344;SDS011;16339;48.748;2.222;2023-06-05T03:48:16;9.35;;;4.30;;
29344;SDS011;16339;48.748;2.222;2023-06-05T03:50:47;10.35;;;3.88;;
29344;SDS011;16339;48.748;2.222;2023-06-05T03:53:16;14.77;;;4.32;;
29344;SDS011;16339;48.748;2.222;2023-06-05T03:55:45;11.07;;;3.90;;
29344;SDS011;16339;48.748;2.222;2023-06-05T03:58:17;10.55;;;4.10;;
29344;SDS011;16339;48.748;2.222;2023-06-05T04:00:47;20.73;;;4.18;;
29344;SDS011;16339;48.748;2.222;2023-06-05T04:03:19;8.57;;;4.38;;
29344;SDS011;16339;48.748;2.222;2023-06-05T04:08:16;13.57;;;3.90;;
29344;SDS011;16339;48.748;2.222;2023-06-05T04:10:45;13.57;;;4.40;;
29344;SDS011;16339;48.748;2.222;2023-06-05T04:13:14;15.10;;;5.35;;
29344;SDS011;16339;48.748;2.222;2023-06-05T04:15:42;12.65;;;4.10;;
29344;SDS011;16339;48.748;2.222;2023-06-05T04:18:14;18.15;;;4.60;;
29344;SDS011;16339;48.748;2.222;2023-06-05T04:20:45;11.98;;;4.95;;
29344;SDS011;16339;48.748;2.222;2023-06-05T04:25:42;13.98;;;4.75;;
29344;SDS011;16339;48.748;2.222;2023-06-05T04:30:43;9.77;;;4.95;;
29344;SDS011;16339;48.748;2.222;2023-06-05T04:33:14;17.25;;;4.60;;
29344;SDS011;16339;48.748;2.222;2023-06-05T04:35:46;13.57;;;4.95;;
29344;SDS011;16339;48.748;2.222;2023-06-05T04:40:46;12.20;;;5.00;;
29344;SDS011;16339;48.748;2.222;2023-06-05T04:43:15;12.68;;;4.97;;
29344;SDS011;16339;48.748;2.222;2023-06-05T04:45:44;15.07;;;5.15;;
29344;SDS011;16339;48.748;2.222;2023-06-05T04:48:13;21.50;;;4.93;;
29344;SDS011;16339;48.748;2.222;2023-06-05T04:50:42;16.08;;;4.80;;
29344;SDS011;16339;48.748;2.222;2023-06-05T04:53:13;15.85;;;5.22;;
29344;SDS011;16339;48.748;2.222;2023-06-05T04:55:43;15.00;;;5.32;;
29344;SDS011;16339;48.748;2.222;2023-06-05T04:58:12;11.25;;;5.07;;
29344;SDS011;16339;48.748;2.222;2023-06-05T05:00:41;16.50;;;4.95;;
29344;SDS011;16339;48.748;2.222;2023-06-05T05:03:10;13.15;;;4.97;;
29344;SDS011;16339;48.748;2.222;2023-06-05T05:05:39;16.63;;;5.75;;
29344;SDS011;16339;48.748;2.222;2023-06-05T05:08:08;11.43;;;4.95;;
29344;SDS011;16339;48.748;2.222;2023-06-05T05:10:39;12.32;;;5.30;;
29344;SDS011;16339;48.748;2.222;2023-06-05T05:15:36;22.77;;;5.90;;
29344;SDS011;16339;48.748;2.222;2023-06-05T05:18:05;13.65;;;5.38;;
29344;SDS011;16339;48.748;2.222;2023-06-05T05:20:33;23.77;;;6.20;;
29344;SDS011;16339;48.748;2.222;2023-06-05T05:23:03;24.27;;;6.22;;
29344;SDS011;16339;48.748;2.222;2023-06-05T05:25:33;14.07;;;5.40;;
29344;SDS011;16339;48.748;2.222;2023-06-05T05:28:04;15.02;;;5.43;;
29344;SDS011;16339;48.748;2.222;2023-06-05T05:30:34;14.77;;;6.10;;
29344;SDS011;16339;48.748;2.222;2023-06-05T05:33:02;15.93;;;6.60;;
29344;SDS011;16339;48.748;2.222;2023-06-05T05:35:31;14.23;;;6.45;;
29344;SDS011;16339;48.748;2.222;2023-06-05T05:38:00;18.15;;;6.40;;
29344;SDS011;16339;48.748;2.222;2023-06-05T05:40:29;16.77;;;6.28;;
29344;SDS011;16339;48.748;2.222;2023-06-05T05:42:57;16.88;;;6.30;;
29344;SDS011;16339;48.748;2.222;2023-06-05T05:45:28;21.23;;;7.10;;
29344;SDS011;16339;48.748;2.222;2023-06-05T05:47:57;25.30;;;6.97;;
29344;SDS011;16339;48.748;2.222;2023-06-05T05:50:26;15.20;;;6.45;;
29344;SDS011;16339;48.748;2.222;2023-06-05T05:52:54;18.20;;;6.40;;
29344;SDS011;16339;48.748;2.222;2023-06-05T05:55:24;15.57;;;6.65;;
29344;SDS011;16339;48.748;2.222;2023-06-05T05:57:52;12.75;;;7.20;;
29344;SDS011;16339;48.748;2.222;2023-06-05T06:00:21;19.23;;;6.63;;
29344;SDS011;16339;48.748;2.222;2023-06-05T06:02:52;20.75;;;7.32;;
29344;SDS011;16339;48.748;2.222;2023-06-05T06:05:22;17.55;;;7.57;;
29344;SDS011;16339;48.748;2.222;2023-06-05T06:07:51;25.73;;;7.15;;
29344;SDS011;16339;48.748;2.222;2023-06-05T06:10:19;25.50;;;6.75;;
29344;SDS011;16339;48.748;2.222;2023-06-05T06:12:48;28.40;;;7.63;;
29344;SDS011;16339;48.748;2.222;2023-06-05T06:15:17;11.85;;;6.13;;
29344;SDS011;16339;48.748;2.222;2023-06-05T06:17:45;15.90;;;6.93;;
29344;SDS011;16339;48.748;2.222;2023-06-05T06:20:17;21.38;;;6.88;;
29344;SDS011;16339;48.748;2.222;2023-06-05T06:22:47;15.88;;;6.53;;
29344;SDS011;16339;48.748;2.222;2023-06-05T06:25:20;19.08;;;7.00;;
29344;SDS011;16339;48.748;2.222;2023-06-05T06:27:53;20.30;;;8.15;;
29344;SDS011;16339;48.748;2.222;2023-06-05T06:30:24;21.45;;;6.53;;
29344;SDS011;16339;48.748;2.222;2023-06-05T06:32:52;27.58;;;7.60;;
29344;SDS011;16339;48.748;2.222;2023-06-05T06:35:26;19.30;;;6.22;;
29344;SDS011;16339;48.748;2.222;2023-06-05T06:37:57;22.52;;;6.72;;
29344;SDS011;16339;48.748;2.222;2023-06-05T06:40:26;13.68;;;7.03;;
29344;SDS011;16339;48.748;2.222;2023-06-05T06:42:55;17.77;;;6.40;;
29344;SDS011;16339;48.748;2.222;2023-06-05T06:45:24;15.55;;;6.53;;
29344;SDS011;16339;48.748;2.222;2023-06-05T06:47:52;18.92;;;7.38;;
29344;SDS011;16339;48.748;2.222;2023-06-05T06:50:21;16.30;;;6.97;;
29344;SDS011;16339;48.748;2.222;2023-06-05T06:52:52;21.70;;;7.22;;
29344;SDS011;16339;48.748;2.222;2023-06-05T06:57:50;23.15;;;7.53;;
29344;SDS011;16339;48.748;2.222;2023-06-05T07:00:18;17.63;;;7.55;;
29344;SDS011;16339;48.748;2.222;2023-06-05T07:02:48;18.75;;;7.50;;
29344;SDS011;16339;48.748;2.222;2023-06-05T07:05:17;21.80;;;7.43;;
29344;SDS011;16339;48.748;2.222;2023-06-05T07:07:45;20.60;;;7.32;;
29344;SDS011;16339;48.748;2.222;2023-06-05T07:10:17;19.00;;;7.00;;
29344;SDS011;16339;48.748;2.222;2023-06-05T07:12:45;17.85;;;7.10;;
29344;SDS011;16339;48.748;2.222;2023-06-05T07:15:14;20.30;;;6.95;;
29344;SDS011;16339;48.748;2.222;2023-06-05T07:17:43;14.43;;;6.53;;
29344;SDS011;16339;48.748;2.222;2023-06-05T07:20:11;22.75;;;6.90;;
29344;SDS011;16339;48.748;2.222;2023-06-05T07:22:41;20.38;;;6.90;;
29344;SDS011;16339;48.748;2.222;2023-06-05T07:27:45;17.80;;;6.85;;
29344;SDS011;16339;48.748;2.222;2023-06-05T07:30:13;19.10;;;7.60;;
29344;SDS011;16339;48.748;2.222;2023-06-05T07:32:43;28.48;;;7.18;;
29344;SDS011;16339;48.748;2.222;2023-06-05T07:35:11;20.70;;;6.65;;
29344;SDS011;16339;48.748;2.222;2023-06-05T07:37:40;20.73;;;6.38;;
29344;SDS011;16339;48.748;2.222;2023-06-05T07:40:10;23.88;;;7.05;;
29344;SDS011;16339;48.748;2.222;2023-06-05T07:42:38;18.17;;;6.82;;
29344;SDS011;16339;48.748;2.222;2023-06-05T07:45:10;28.13;;;7.03;;
29344;SDS011;16339;48.748;2.222;2023-06-05T07:47:39;23.88;;;6.95;;
29344;SDS011;16339;48.748;2.222;2023-06-05T07:50:08;23.77;;;6.60;;
29344;SDS011;16339;48.748;2.222;2023-06-05T07:52:37;12.10;;;6.68;;
29344;SDS011;16339;48.748;2.222;2023-06-05T07:55:06;25.35;;;7.88;;
29344;SDS011;16339;48.748;2.222;2023-06-05T07:57:35;22.80;;;7.43;;
29344;SDS011;16339;48.748;2.222;2023-06-05T08:00:05;11.82;;;6.25;;
29344;SDS011;16339;48.748;2.222;2023-06-05T08:05:09;23.23;;;6.93;;
29344;SDS011;16339;48.748;2.222;2023-06-05T08:07:38;15.40;;;5.97;;
29344;SDS011;16339;48.748;2.222;2023-06-05T08:10:07;26.45;;;6.85;;
29344;SDS011;16339;48.748;2.222;2023-06-05T08:12:37;15.90;;;6.70;;
29344;SDS011;16339;48.748;2.222;2023-06-05T08:15:06;15.38;;;6.53;;
29344;SDS011;16339;48.748;2.222;2023-06-05T08:17:38;31.05;;;7.05;;
29344;SDS011;16339;48.748;2.222;2023-06-05T08:22:36;12.60;;;6.47;;
29344;SDS011;16339;48.748;2.222;2023-06-05T08:25:07;13.63;;;5.73;;
29344;SDS011;16339;48.748;2.222;2023-06-05T08:27:36;22.98;;;5.85;;
29344;SDS011;16339;48.748;2.222;2023-06-05T08:30:06;15.57;;;6.47;;
29344;SDS011;16339;48.748;2.222;2023-06-05T08:32:38;27.65;;;6.65;;
29344;SDS011;16339;48.748;2.222;2023-06-05T08:35:08;11.43;;;5.40;;
29344;SDS011;16339;48.748;2.222;2023-06-05T08:37:37;14.90;;;5.32;;
29344;SDS011;16339;48.748;2.222;2023-06-05T08:40:07;11.88;;;5.43;;
29344;SDS011;16339;48.748;2.222;2023-06-05T08:42:40;19.10;;;5.82;;
29344;SDS011;16339;48.748;2.222;2023-06-05T08:45:10;17.65;;;5.80;;
29344;SDS011;16339;48.748;2.222;2023-06-05T08:47:43;16.48;;;5.40;;
29344;SDS011;16339;48.748;2.222;2023-06-05T08:50:15;45.78;;;5.78;;
29344;SDS011;16339;48.748;2.222;2023-06-05T08:55:57;12.20;;;5.32;;
29344;SDS011;16339;48.748;2.222;2023-06-05T08:58:26;13.38;;;4.78;;
29344;SDS011;16339;48.748;2.222;2023-06-05T09:00:58;13.98;;;4.45;;
29344;SDS011;16339;48.748;2.222;2023-06-05T09:03:33;20.65;;;5.88;;
29344;SDS011;16339;48.748;2.222;2023-06-05T09:06:11;16.50;;;5.07;;
29344;SDS011;16339;48.748;2.222;2023-06-05T09:08:42;24.67;;;5.47;;
29344;SDS011;16339;48.748;2.222;2023-06-05T09:11:22;19.77;;;5.85;;
29344;SDS011;16339;48.748;2.222;2023-06-05T09:13:54;14.35;;;4.72;;
29344;SDS011;16339;48.748;2.222;2023-06-05T09:19:28;11.63;;;5.57;;
29344;SDS011;16339;48.748;2.222;2023-06-05T09:22:31;17.02;;;5.82;;
29344;SDS011;16339;48.748;2.222;2023-06-05T09:25:04;22.75;;;5.68;;
29344;SDS011;16339;48.748;2.222;2023-06-05T09:27:36;23.95;;;5.10;;
29344;SDS011;16339;48.748;2.222;2023-06-05T09:30:10;14.23;;;5.47;;
29344;SDS011;16339;48.748;2.222;2023-06-05T09:32:41;16.30;;;4.75;;
29344;SDS011;16339;48.748;2.222;2023-06-05T09:35:14;15.10;;;4.57;;
29344;SDS011;16339;48.748;2.222;2023-06-05T09:40:37;19.20;;;4.70;;
29344;SDS011;16339;48.748;2.222;2023-06-05T09:43:13;21.27;;;5.55;;
29344;SDS011;16339;48.748;2.222;2023-06-05T09:45:44;10.38;;;5.38;;
29344;SDS011;16339;48.748;2.222;2023-06-05T09:48:13;11.13;;;4.90;;
29344;SDS011;16339;48.748;2.222;2023-06-05T09:50:45;24.98;;;5.32;;
29344;SDS011;16339;48.748;2.222;2023-06-05T09:55:43;27.60;;;4.93;;
29344;SDS011;16339;48.748;2.222;2023-06-05T09:58:12;13.75;;;4.78;;
29344;SDS011;16339;48.748;2.222;2023-06-05T10:00:42;15.60;;;5.30;;
29344;SDS011;16339;48.748;2.222;2023-06-05T10:03:13;12.35;;;5.72;;
29344;SDS011;16339;48.748;2.222;2023-06-05T10:05:47;16.17;;;5.25;;
29344;SDS011;16339;48.748;2.222;2023-06-05T10:08:16;14.40;;;5.40;;
29344;SDS011;16339;48.748;2.222;2023-06-05T10:10:45;19.20;;;6.32;;
29344;SDS011;16339;48.748;2.222;2023-06-05T10:13:14;18.70;;;5.15;;
29344;SDS011;16339;48.748;2.222;2023-06-05T10:15:43;8.70;;;4.55;;
29344;SDS011;16339;48.748;2.222;2023-06-05T10:18:14;11.15;;;4.47;;
29344;SDS011;16339;48.748;2.222;2023-06-05T10:20:43;27.23;;;5.18;;
29344;SDS011;16339;48.748;2.222;2023-06-05T10:23:17;14.35;;;4.97;;
29344;SDS011;16339;48.748;2.222;2023-06-05T10:25:47;11.00;;;4.40;;
29344;SDS011;16339;48.748;2.222;2023-06-05T10:28:20;16.00;;;5.07;;
29344;SDS011;16339;48.748;2.222;2023-06-05T10:34:02;13.30;;;4.80;;
29344;SDS011;16339;48.748;2.222;2023-06-05T10:36:45;14.88;;;4.82;;
29344;SDS011;16339;48.748;2.222;2023-06-05T10:39:28;15.35;;;4.93;;
29344;SDS011;16339;48.748;2.222;2023-06-05T10:41:58;14.82;;;4.90;;
29344;SDS011;16339;48.748;2.222;2023-06-05T10:44:39;12.45;;;4.50;;
29344;SDS011;16339;48.748;2.222;2023-06-05T10:52:56;14.45;;;4.40;;
29344;SDS011;16339;48.748;2.222;2023-06-05T10:55:40;12.45;;;4.32;;
29344;SDS011;16339;48.748;2.222;2023-06-05T10:58:10;9.95;;;4.30;;
29344;SDS011;16339;48.748;2.222;2023-06-05T11:06:31;15.77;;;3.95;;
29344;SDS011;16339;48.748;2.222;2023-06-05T11:09:06;7.43;;;3.65;;
29344;SDS011;16339;48.748;2.222;2023-06-05T11:17:28;9.30;;;4.30;;
29344;SDS011;16339;48.748;2.222;2023-06-05T11:19:57;6.68;;;3.47;;
29344;SDS011;16339;48.748;2.222;2023-06-05T11:22:30;8.85;;;3.83;;
29344;SDS011;16339;48.748;2.222;2023-06-05T11:27:58;8.13;;;3.60;;
29344;SDS011;16339;48.748;2.222;2023-06-05T11:30:31;7.03;;;3.50;;
29344;SDS011;16339;48.748;2.222;2023-06-05T11:33:05;13.03;;;5.63;;
29344;SDS011;16339;48.748;2.222;2023-06-05T11:35:37;7.72;;;4.13;;
29344;SDS011;16339;48.748;2.222;2023-06-05T11:38:07;5.82;;;3.67;;
29344;SDS011;16339;48.748;2.222;2023-06-05T11:40:36;14.43;;;3.50;;
29344;SDS011;16339;48.748;2.222;2023-06-05T11:43:09;18.00;;;3.60;;
29344;SDS011;16339;48.748;2.222;2023-06-05T11:45:41;33.33;;;5.10;;
29344;SDS011;16339;48.748;2.222;2023-06-05T11:48:16;23.35;;;4.03;;
29344;SDS011;16339;48.748;2.222;2023-06-05T11:50:53;7.43;;;3.33;;
29344;SDS011;16339;48.748;2.222;2023-06-05T11:53:24;11.65;;;3.63;;
29344;SDS011;16339;48.748;2.222;2023-06-05T11:55:53;8.10;;;3.35;;
29344;SDS011;16339;48.748;2.222;2023-06-05T11:58:37;6.93;;;3.50;;
29344;SDS011;16339;48.748;2.222;2023-06-05T12:01:08;12.32;;;3.45;;
29344;SDS011;16339;48.748;2.222;2023-06-05T12:03:40;12.98;;;3.50;;
29344;SDS011;16339;48.748;2.222;2023-06-05T12:06:09;7.82;;;3.25;;
29344;SDS011;16339;48.748;2.222;2023-06-05T12:08:39;8.40;;;3.22;;
29344;SDS011;16339;48.748;2.222;2023-06-05T12:11:19;10.95;;;3.60;;
29344;SDS011;16339;48.748;2.222;2023-06-05T12:13:53;8.82;;;3.35;;
29344;SDS011;16339;48.748;2.222;2023-06-05T12:16:29;14.75;;;3.78;;
29344;SDS011;16339;48.748;2.222;2023-06-05T12:18:59;7.80;;;3.28;;
29344;SDS011;16339;48.748;2.222;2023-06-05T12:21:28;10.23;;;3.53;;
29344;SDS011;16339;48.748;2.222;2023-06-05T12:24:00;9.52;;;3.40;;
29344;SDS011;16339;48.748;2.222;2023-06-05T12:26:35;8.82;;;3.55;;
29344;SDS011;16339;48.748;2.222;2023-06-05T12:29:19;6.68;;;3.72;;
29344;SDS011;16339;48.748;2.222;2023-06-05T12:31:50;14.65;;;3.58;;
29344;SDS011;16339;48.748;2.222;2023-06-05T12:34:20;7.78;;;3.25;;
29344;SDS011;16339;48.748;2.222;2023-06-05T12:37:07;5.18;;;3.30;;
29344;SDS011;16339;48.748;2.222;2023-06-05T12:39:35;13.70;;;3.42;;
29344;SDS011;16339;48.748;2.222;2023-06-05T12:42:05;10.38;;;3.65;;
29344;SDS011;16339;48.748;2.222;2023-06-05T12:44:36;4.80;;;3.33;;
29344;SDS011;16339;48.748;2.222;2023-06-05T12:47:07;5.45;;;3.53;;
29344;SDS011;16339;48.748;2.222;2023-06-05T12:52:06;12.18;;;3.83;;
29344;SDS011;16339;48.748;2.222;2023-06-05T12:54:39;7.47;;;3.33;;
29344;SDS011;16339;48.748;2.222;2023-06-05T12:57:11;7.22;;;3.30;;
29344;SDS011;16339;48.748;2.222;2023-06-05T12:59:42;6.72;;;3.50;;
29344;SDS011;16339;48.748;2.222;2023-06-05T13:02:11;12.65;;;3.90;;
29344;SDS011;16339;48.748;2.222;2023-06-05T13:04:40;10.05;;;3.47;;
29344;SDS011;16339;48.748;2.222;2023-06-05T13:07:08;8.70;;;3.38;;
29344;SDS011;16339;48.748;2.222;2023-06-05T13:09:37;8.27;;;2.67;;
29344;SDS011;16339;48.748;2.222;2023-06-05T13:12:06;9.30;;;2.83;;
29344;SDS011;16339;48.748;2.222;2023-06-05T13:14:35;6.32;;;3.50;;
29344;SDS011;16339;48.748;2.222;2023-06-05T13:17:06;5.15;;;3.35;;
29344;SDS011;16339;48.748;2.222;2023-06-05T13:19:35;10.02;;;3.20;;
29344;SDS011;16339;48.748;2.222;2023-06-05T13:22:04;10.38;;;3.28;;
29344;SDS011;16339;48.748;2.222;2023-06-05T13:24:33;9.10;;;3.08;;
29344;SDS011;16339;48.748;2.222;2023-06-05T13:27:02;6.97;;;3.25;;
29344;SDS011;16339;48.748;2.222;2023-06-05T13:29:31;6.70;;;3.45;;
29344;SDS011;16339;48.748;2.222;2023-06-05T13:32:00;5.03;;;3.15;;
29344;SDS011;16339;48.748;2.222;2023-06-05T13:34:31;12.75;;;3.40;;
29344;SDS011;16339;48.748;2.222;2023-06-05T13:37:00;5.57;;;3.00;;
29344;SDS011;16339;48.748;2.222;2023-06-05T13:39:28;10.55;;;3.50;;
29344;SDS011;16339;48.748;2.222;2023-06-05T13:41:57;6.07;;;3.13;;
29344;SDS011;16339;48.748;2.222;2023-06-05T13:44:27;5.68;;;3.28;;
29344;SDS011;16339;48.748;2.222;2023-06-05T13:46:57;6.07;;;2.95;;
29344;SDS011;16339;48.748;2.222;2023-06-05T13:49:30;7.65;;;2.85;;
29344;SDS011;16339;48.748;2.222;2023-06-05T13:52:00;6.93;;;2.95;;
29344;SDS011;16339;48.748;2.222;2023-06-05T13:54:29;7.53;;;2.95;;
29344;SDS011;16339;48.748;2.222;2023-06-05T13:57:02;7.53;;;3.35;;
29344;SDS011;16339;48.748;2.222;2023-06-05T13:59:32;6.13;;;2.92;;
29344;SDS011;16339;48.748;2.222;2023-06-05T14:02:01;8.57;;;2.85;;
29344;SDS011;16339;48.748;2.222;2023-06-05T14:04:32;3.90;;;2.72;;
29344;SDS011;16339;48.748;2.222;2023-06-05T14:07:01;4.53;;;3.15;;
29344;SDS011;16339;48.748;2.222;2023-06-05T14:09:30;6.55;;;3.00;;
29344;SDS011;16339;48.748;2.222;2023-06-05T14:11:59;9.85;;;3.28;;
29344;SDS011;16339;48.748;2.222;2023-06-05T14:14:29;9.38;;;3.03;;
29344;SDS011;16339;48.748;2.222;2023-06-05T14:17:00;4.05;;;3.15;;
29344;SDS011;16339;48.748;2.222;2023-06-05T14:19:32;7.20;;;3.30;;
29344;SDS011;16339;48.748;2.222;2023-06-05T14:22:00;7.07;;;3.15;;
29344;SDS011;16339;48.748;2.222;2023-06-05T14:24:30;7.25;;;2.88;;
29344;SDS011;16339;48.748;2.222;2023-06-05T14:27:01;4.32;;;3.10;;
29344;SDS011;16339;48.748;2.222;2023-06-05T14:29:30;11.32;;;3.30;;
29344;SDS011;16339;48.748;2.222;2023-06-05T14:32:02;5.47;;;2.97;;
29344;SDS011;16339;48.748;2.222;2023-06-05T14:34:45;7.57;;;2.88;;
29344;SDS011;16339;48.748;2.222;2023-06-05T14:37:16;7.68;;;2.92;;
29344;SDS011;16339;48.748;2.222;2023-06-05T14:39:44;7.03;;;2.92;;
29344;SDS011;16339;48.748;2.222;2023-06-05T14:42:16;5.30;;;2.83;;
29344;SDS011;16339;48.748;2.222;2023-06-05T14:44:45;19.15;;;3.65;;
29344;SDS011;16339;48.748;2.222;2023-06-05T14:47:13;11.43;;;3.13;;
29344;SDS011;16339;48.748;2.222;2023-06-05T14:49:45;6.38;;;3.10;;
29344;SDS011;16339;48.748;2.222;2023-06-05T14:52:14;6.50;;;3.10;;
29344;SDS011;16339;48.748;2.222;2023-06-05T14:54:43;7.07;;;2.90;;
29344;SDS011;16339;48.748;2.222;2023-06-05T14:57:12;6.82;;;2.83;;
29344;SDS011;16339;48.748;2.222;2023-06-05T14:59:40;10.13;;;3.05;;
29344;SDS011;16339;48.748;2.222;2023-06-05T15:02:09;12.40;;;3.55;;
29344;SDS011;16339;48.748;2.222;2023-06-05T15:04:38;5.95;;;3.13;;
29344;SDS011;16339;48.748;2.222;2023-06-05T15:07:11;6.50;;;3.00;;
29344;SDS011;16339;48.748;2.222;2023-06-05T15:09:40;8.77;;;3.00;;
29344;SDS011;16339;48.748;2.222;2023-06-05T15:12:08;6.72;;;3.05;;
29344;SDS011;16339;48.748;2.222;2023-06-05T15:14:37;6.07;;;3.03;;
29344;SDS011;16339;48.748;2.222;2023-06-05T15:17:06;9.63;;;2.95;;
29344;SDS011;16339;48.748;2.222;2023-06-05T15:19:35;7.88;;;3.05;;
29344;SDS011;16339;48.748;2.222;2023-06-05T15:22:05;6.05;;;3.08;;
29344;SDS011;16339;48.748;2.222;2023-06-05T15:24:36;4.75;;;3.08;;
29344;SDS011;16339;48.748;2.222;2023-06-05T15:27:05;9.68;;;3.05;;
29344;SDS011;16339;48.748;2.222;2023-06-05T15:32:04;12.25;;;3.00;;
29344;SDS011;16339;48.748;2.222;2023-06-05T15:34:34;8.93;;;3.22;;
29344;SDS011;16339;48.748;2.222;2023-06-05T15:37:05;6.05;;;3.20;;
29344;SDS011;16339;48.748;2.222;2023-06-05T15:39:36;8.07;;;2.90;;
29344;SDS011;16339;48.748;2.222;2023-06-05T15:42:05;9.23;;;3.08;;
29344;SDS011;16339;48.748;2.222;2023-06-05T15:44:36;8.00;;;3.50;;
29344;SDS011;16339;48.748;2.222;2023-06-05T15:47:05;6.93;;;2.70;;
29344;SDS011;16339;48.748;2.222;2023-06-05T15:49:34;5.32;;;3.10;;
29344;SDS011;16339;48.748;2.222;2023-06-05T15:52:03;6.40;;;2.60;;
29344;SDS011;16339;48.748;2.222;2023-06-05T15:54:35;4.30;;;3.00;;
29344;SDS011;16339;48.748;2.222;2023-06-05T15:57:06;6.70;;;3.00;;
29344;SDS011;16339;48.748;2.222;2023-06-05T15:59:35;4.90;;;2.67;;
29344;SDS011;16339;48.748;2.222;2023-06-05T16:02:04;4.03;;;3.00;;
29344;SDS011;16339;48.748;2.222;2023-06-05T16:04:34;5.67;;;3.63;;